Latest Weather Observations for Maatsuyker Island

IDT60801

Issued at 2:02 am EST Thursday 30 June 2016 (issued every 30 minutes, with the page automatically refreshed every 10 minutes)

About weather observations | Map of weather stations | Latest weather observations for TAS | Other Formats
Station Details ID: 094041 Name: MAATSUYKER ISLAND LIGHTHOUSE Lat: -43.66 Lon: 146.27 Height: 146.5 m
Data from the previous 72 hours. | See also: Recent months at Maatsuyker Island
Date/Time
EST
Temp
°C
App
Temp
°C
Dew
Point
°C
Rel
Hum
%
Delta-T
°C
Wind Press
QNH
hPa
Press
MSL
hPa
Rain since
9am
mm
Dir  Spd
km/h
Gust
km/h
Spd
kts
Gust
kts
30/02:00am 10.7 3.3 4.0 63 3.0 N 32 44 17 24 1007.9 - 4.0
30/01:30am 11.1 3.5 3.7 60 3.3 N 33 46 18 25 1008.4 - 4.0
30/01:20am 11.0 4.1 2.8 57 3.6 N 28 46 15 25 1008.6 - 4.0
30/01:00am 10.5 4.9 3.2 60 3.2 N 22 35 12 19 1009.3 - 4.0
30/12:30am 10.7 5.2 4.0 63 3.0 N 22 32 12 17 1009.8 - 4.0
30/12:00am 11.1 3.7 4.2 62 3.1 NNW 32 46 17 25 1010.5 1010.7 4.0
 
Date/Time
EST
Temp
°C
App
Temp
°C
Dew
Point
°C
Rel
Hum
%
Delta-T
°C
Wind Press
QNH
hPa
Press
MSL
hPa
Rain since
9am
mm
Dir  Spd
km/h
Gust
km/h
Spd
kts
Gust
kts
29/11:30pm 11.0 4.1 4.4 64 3.0 N 30 41 16 22 1011.0 - 4.0
29/11:00pm 10.7 4.6 4.8 67 2.7 N 26 44 14 24 1011.6 - 4.0
29/10:30pm 10.8 4.4 5.4 69 2.5 NNW 28 44 15 24 1012.2 - 4.0
29/10:00pm 10.7 4.8 6.0 73 2.2 NNW 26 39 14 21 1012.8 - 4.0
29/09:30pm 10.8 4.2 5.9 72 2.3 NNW 30 46 16 25 1013.1 - 4.0
29/09:00pm 10.7 3.7 6.0 73 2.2 NNW 32 43 17 23 1013.3 1013.5 4.0
29/08:30pm 10.8 4.7 6.4 74 2.1 N 28 39 15 21 1013.7 - 4.0
29/08:00pm 10.5 4.8 6.5 76 1.9 N 26 39 14 21 1014.0 - 4.0
29/07:30pm 10.5 4.4 6.5 76 1.9 N 28 41 15 22 1014.0 - 4.0
29/07:00pm 10.4 4.6 6.4 76 1.9 N 26 39 14 21 1014.3 - 4.0
29/06:41pm 10.3 4.2 6.7 78 1.7 N 28 46 15 25 1014.2 - 4.0
29/06:30pm 10.4 4.3 6.8 78 1.7 N 28 39 15 21 1014.2 - 4.0
29/06:00pm 10.5 4.6 7.4 81 1.5 N 28 39 15 21 1014.5 1014.7 4.0
29/05:30pm 10.7 4.8 7.4 80 1.6 NNW 28 39 15 21 1014.9 - 4.0
29/05:00pm 11.0 5.1 7.3 78 1.8 NNW 28 41 15 22 1015.2 - 4.0
29/04:30pm 10.9 5.2 8.5 85 1.2 NNW 28 37 15 20 1015.5 - 4.0
29/04:00pm 11.1 4.8 9.1 87 1.0 NNW 32 41 17 22 1015.6 - 4.0
29/03:30pm 11.3 6.2 9.3 87 1.0 NNW 26 35 14 19 1015.8 - 4.0
29/03:00pm 10.0 6.0 9.2 95 0.4 N 20 28 11 15 1016.4 1016.6 4.0
29/02:30pm 10.4 3.6 9.2 92 0.6 NNW 35 43 19 23 1016.1 - 2.0
29/02:00pm 10.8 4.5 9.8 93 0.5 NNW 33 43 18 23 1016.4 - 2.0
29/01:30pm 10.9 5.9 9.7 92 0.6 NNW 26 33 14 18 1016.7 - 2.0
29/01:00pm 10.3 6.5 9.9 97 0.2 NNW 20 26 11 14 1017.1 - 1.8
29/12:30pm 10.5 6.0 9.9 96 0.3 NNW 24 35 13 19 1017.5 - 0.4
29/12:00pm 11.2 7.3 9.4 89 0.9 NNW 20 26 11 14 1017.7 1017.9 0.0
29/11:30am 11.4 7.5 9.4 87 1.0 NNW 20 28 11 15 1018.0 - 0.0
29/11:00am 11.6 7.8 9.8 89 0.9 NNW 20 28 11 15 1018.4 - 0.0
29/10:30am 11.0 6.3 9.4 90 0.8 NNW 24 30 13 16 1018.5 - 0.0
29/10:00am 11.0 4.2 9.2 89 0.9 NW 35 41 19 22 1018.2 - 0.0
29/09:30am 11.0 4.7 9.6 91 0.7 NNW 33 39 18 21 1018.1 - 0.0
29/09:00am 10.9 5.0 8.9 87 1.0 NW 30 44 16 24 1018.0 1018.2 12.0
29/08:30am 10.9 2.8 8.7 86 1.1 NW 41 44 22 24 1017.8 - 12.0
29/08:00am 10.6 3.0 9.2 91 0.7 NW 39 44 21 24 1017.4 - 12.0
29/07:30am 10.5 3.7 9.3 92 0.6 NW 35 39 19 21 1017.3 - 12.0
29/07:00am 10.5 3.3 9.1 91 0.7 NW 37 41 20 22 1017.2 - 12.0
29/06:30am 10.4 2.0 9.0 91 0.7 NW 43 48 23 26 1016.9 - 12.0
29/06:00am 10.0 3.8 9.4 96 0.3 WNW 32 46 17 25 1016.6 1016.8 12.0
29/05:36am 10.7 3.3 9.7 93 0.5 WNW 39 46 21 25 1016.5 - 12.0
29/05:30am 10.9 -0.1 9.1 89 0.9 NW 57 65 31 35 1015.4 - 11.8
29/05:00am 11.2 -0.1 9.4 89 0.9 NW 59 67 32 36 1014.9 - 11.8
29/04:30am 11.1 0.3 9.3 89 0.9 NW 56 63 30 34 1014.8 - 11.8
29/04:00am 11.1 1.9 9.5 90 0.8 NW 48 61 26 33 1015.1 - 11.6
29/03:30am 10.2 2.0 8.2 87 1.0 NNW 41 48 22 26 1014.8 - 11.6
29/03:00am 10.1 2.4 8.7 91 0.7 NNW 39 48 21 26 1014.6 1014.8 11.6
29/02:30am 10.2 2.1 8.6 90 0.8 NNW 41 50 22 27 1014.5 - 11.6
29/02:00am 10.3 1.7 8.7 90 0.8 NNW 44 56 24 30 1013.7 - 11.6
29/01:30am 10.3 -0.2 8.9 91 0.7 NW 54 63 29 34 1013.7 - 11.6
29/01:00am 10.5 -0.5 9.3 92 0.6 NW 57 65 31 35 1013.1 - 11.6
29/12:30am 9.6 -1.0 8.6 93 0.5 NNW 54 63 29 34 1013.1 - 11.0
29/12:00am 8.9 -2.3 8.3 96 0.3 NW 57 67 31 36 1013.2 1013.4 9.4
 
Date/Time
EST
Temp
°C
App
Temp
°C
Dew
Point
°C
Rel
Hum
%
Delta-T
°C
Wind Press
QNH
hPa
Press
MSL
hPa
Rain since
9am
mm
Dir  Spd
km/h
Gust
km/h
Spd
kts
Gust
kts
28/11:30pm 8.6 -5.0 7.8 95 0.4 NW 69 78 37 42 1013.1 - 7.6
28/11:19pm 8.5 -4.5 7.2 91 0.6 NW 65 74 35 40 1012.8 - 6.2
28/11:02pm 9.6 -7.3 8.2 91 0.7 NW 87 106 47 57 1013.0 - 3.2
28/11:00pm 11.9 -5.0 10.0 88 1.0 NW 89 106 48 57 1010.7 - 3.2
28/10:32pm 11.9 -3.8 10.2 89 0.9 NNW 83 102 45 55 1010.5 - 3.0
28/10:30pm 11.9 -4.1 10.2 89 0.9 NNW 85 102 46 55 1010.2 - 2.8
28/10:06pm 12.4 -3.7 9.9 85 1.3 NNW 85 104 46 56 1009.9 - 2.8
28/10:00pm 12.5 -3.9 10.2 86 1.2 NNW 87 102 47 55 1010.2 - 2.8
28/09:33pm 12.4 -2.8 9.7 83 1.4 NNW 80 98 43 53 1010.5 - 2.8
28/09:30pm 12.4 -3.3 9.5 82 1.5 NNW 82 96 44 52 1010.3 - 2.8
28/09:00pm 12.5 -2.4 9.6 82 1.5 NNW 78 98 42 53 1010.2 1010.4 2.8
28/08:30pm 12.4 -2.8 9.7 83 1.4 NNW 80 100 43 54 1010.3 - 2.8
28/08:01pm 12.4 -2.1 9.7 83 1.4 NNW 76 95 41 51 1010.6 - 2.8
28/08:00pm 12.4 -2.4 9.7 83 1.4 NNW 78 95 42 51 1010.5 - 2.8
28/07:37pm 12.1 -1.2 9.8 86 1.2 NNW 70 91 38 49 1010.6 - 2.6
28/07:30pm 12.3 -0.8 9.8 85 1.3 NNW 69 83 37 45 1011.0 - 2.6
28/07:23pm 12.2 -0.6 9.7 85 1.3 NNW 67 85 36 46 1011.4 - 2.6
28/07:00pm 12.3 -2.2 9.6 83 1.4 NNW 76 89 41 48 1010.8 - 2.6
28/06:30pm 12.3 -2.3 9.1 81 1.6 NNW 76 93 41 50 1011.0 - 2.6
28/06:02pm 12.3 -1.7 8.7 79 1.8 NNW 72 91 39 49 1010.8 - 2.6
28/06:00pm 12.2 -2.1 9.0 81 1.6 NNW 74 91 40 49 1010.9 1011.1 2.6
28/05:30pm 12.1 -3.7 9.1 82 1.5 NW 82 102 44 55 1010.2 - 2.6
28/05:10pm 12.1 -1.1 9.6 85 1.3 NNW 69 87 37 47 1010.9 - 2.6
28/05:00pm 12.0 -1.3 9.2 83 1.4 NNW 69 83 37 45 1010.5 - 2.6
28/04:30pm 11.8 -3.1 9.4 85 1.2 NNW 78 93 42 50 1010.4 - 2.6
28/04:04pm 11.8 -1.4 9.4 85 1.2 NNW 69 91 37 49 1010.2 - 2.6
28/04:00pm 11.9 -1.3 9.3 84 1.3 NNW 69 83 37 45 1010.4 - 2.6
28/03:30pm 11.7 -1.7 9.5 86 1.1 NNW 70 85 38 46 1010.6 - 2.6
28/03:00pm 11.7 -1.4 9.9 89 0.9 NNW 69 80 37 43 1010.6 1010.8 2.6
28/02:30pm 11.5 -2.2 9.9 90 0.8 NNW 72 85 39 46 1010.2 - 2.6
28/02:00pm 11.1 -2.4 10.5 96 0.3 NW 72 83 39 45 1010.0 - 2.6
28/01:45pm 10.5 -3.4 10.3 99 0.1 NNW 74 93 40 50 1010.2 - 2.4
28/01:30pm 11.6 -4.1 9.4 86 1.1 NW 82 95 44 51 1009.9 - 0.0
28/01:14pm 11.9 -2.0 8.9 82 1.5 NW 72 91 39 49 1010.0 - 0.0
28/01:00pm 11.8 -2.9 9.0 83 1.4 NW 76 93 41 50 1010.1 - 0.0
28/12:30pm 11.6 -4.3 9.4 86 1.1 NW 83 95 45 51 1009.9 - 0.0
28/12:00pm 11.7 -4.3 9.1 84 1.3 NNW 83 98 45 53 1009.3 1009.5 0.0
28/11:30am 11.9 -3.9 9.6 86 1.2 NW 83 96 45 52 1009.9 - 0.0
28/11:08am 11.8 -2.2 9.9 88 1.0 NNW 74 93 40 50 1009.6 - 0.0
28/11:00am 11.7 -2.0 9.9 89 0.9 NNW 72 87 39 47 1010.2 - 0.0
28/10:30am 11.7 -3.5 9.7 87 1.0 NW 80 89 43 48 1010.1 - 0.0
28/10:00am 11.5 -3.6 10.1 91 0.7 NW 80 91 43 49 1009.9 - 0.0
28/09:30am 11.6 -3.9 10.2 91 0.7 NW 82 96 44 52 1009.8 - 0.0
28/09:00am 11.3 -2.6 10.5 95 0.4 NW 74 95 40 51 1009.1 1009.3 2.2
28/08:30am 11.5 -4.2 10.1 91 0.7 NW 83 95 45 51 1008.6 - 2.2
28/08:00am 11.3 -4.7 10.5 95 0.4 NW 85 102 46 55 1008.3 - 2.2
28/07:30am 11.4 -4.6 10.4 94 0.5 NW 85 100 46 54 1008.0 - 2.2
28/07:18am 11.3 -4.1 10.5 95 0.4 NW 82 100 44 54 1008.1 - 2.2
28/07:00am 11.8 -3.3 10.1 89 0.9 NNW 80 95 43 51 1007.9 - 2.0
28/06:30am 11.7 -3.8 10.0 89 0.9 NNW 82 95 44 51 1007.4 - 2.0
28/06:14am 11.8 -3.3 10.3 90 0.8 NNW 80 98 43 53 1007.6 - 2.0
28/06:00am 11.8 -2.3 9.7 87 1.1 NW 74 102 40 55 1006.7 1006.9 2.0
28/05:43am 11.9 -3.3 9.8 87 1.1 NNW 80 98 43 53 1006.9 - 2.0
28/05:30am 11.8 -3.8 9.7 87 1.1 NNW 82 95 44 51 1006.8 - 2.0
28/05:00am 11.6 -3.9 10.2 91 0.7 NW 82 93 44 50 1006.8 - 2.0
28/04:30am 11.8 -3.0 9.9 88 1.0 NNW 78 93 42 50 1006.7 - 2.0
28/04:18am 11.8 -2.8 9.2 84 1.3 NNW 76 100 41 54 1006.4 - 2.0
28/04:00am 11.8 -2.7 9.7 87 1.1 NW 76 89 41 48 1007.1 - 2.0
28/03:30am 11.6 -3.7 9.4 86 1.1 NW 80 95 43 51 1007.0 - 2.0
28/03:00am 11.5 -4.7 9.7 89 0.9 NW 85 100 46 54 1006.8 1007.0 2.0
28/02:30am 11.0 -5.5 9.8 92 0.6 NW 87 102 47 55 1006.3 - 2.0
28/02:00am 11.5 -6.0 9.1 85 1.2 NW 91 102 49 55 1006.0 - 2.0
28/01:56am 11.5 -6.4 8.9 84 1.3 NNW 93 102 50 55 1005.4 - 2.0
28/01:30am 11.6 -2.3 9.0 84 1.3 NNW 72 91 39 49 1006.0 - 1.8
28/01:15am 11.4 -3.2 9.2 86 1.1 NNW 76 95 41 51 1006.0 - 1.8
28/01:00am 11.3 -2.9 9.3 87 1.0 NNW 74 89 40 48 1006.2 - 1.8
28/12:34am 10.5 -4.0 9.5 93 0.5 NNW 76 96 41 52 1006.0 - 1.8
28/12:30am 11.4 -3.2 9.2 86 1.1 NNW 76 89 41 48 1006.4 - 1.4
28/12:00am 11.1 -2.4 8.9 86 1.1 NNW 70 85 38 46 1006.7 1006.9 1.4
 
Date/Time
EST
Temp
°C
App
Temp
°C
Dew
Point
°C
Rel
Hum
%
Delta-T
°C
Wind Press
QNH
hPa
Press
MSL
hPa
Rain since
9am
mm
Dir  Spd
km/h
Gust
km/h
Spd
kts
Gust
kts
27/11:49pm 11.2 -3.0 9.2 87 1.0 NNW 74 93 40 50 1006.9 - 1.4
27/11:48pm 11.2 -3.5 9.0 86 1.1 NNW 76 93 41 50 1006.9 - 1.4
27/11:30pm 10.7 -0.1 9.3 91 0.7 NNW 56 78 30 42 1007.0 - 1.4
27/11:09pm 9.9 0.9 8.9 93 0.5 NNW 46 74 25 40 1007.6 - 1.2
27/11:00pm 10.0 1.0 9.0 93 0.5 NNW 46 59 25 32 1008.0 - 1.2
27/10:30pm 9.8 0.7 8.4 91 0.7 NNW 46 61 25 33 1008.2 - 0.2
27/10:00pm 9.5 0.3 7.8 89 0.8 NNW 46 69 25 37 1008.4 - 0.2
27/09:30pm 9.8 0.5 7.5 85 1.1 NNW 46 65 25 35 1008.5 - 0.0
27/09:28pm 9.8 0.5 7.5 85 1.1 NNW 46 65 25 35 1008.4 - 0.0
27/09:00pm 10.0 0.6 7.1 82 1.4 NNW 46 63 25 34 1008.5 1008.7 0.0
27/08:49pm 10.0 0.6 7.1 82 1.4 NNW 46 65 25 35 1008.6 - 0.0
27/08:30pm 9.9 0.1 7.0 82 1.4 NNW 48 63 26 34 1008.8 - 0.0
27/08:00pm 9.6 0.2 7.1 84 1.2 NNW 46 57 25 31 1008.7 - 0.0
27/07:30pm 9.7 0.6 6.7 81 1.4 NNW 44 56 24 30 1008.9 - 0.0
27/07:00pm 9.9 0.9 6.5 79 1.6 NNW 43 56 23 30 1008.7 - 0.0
27/06:30pm 10.0 0.8 6.2 77 1.8 NNW 44 56 24 30 1008.5 - 0.0
27/06:00pm 10.4 -0.4 5.9 73 2.1 NNW 52 74 28 40 1008.3 1008.5 0.0
27/05:50pm 10.9 -1.5 4.8 66 2.8 NNW 59 78 32 42 1007.5 - 0.0
27/05:30pm 10.8 -1.6 4.9 67 2.7 NNW 59 76 32 41 1007.9 - 0.0
27/05:12pm 10.8 -1.5 5.2 68 2.6 NNW 59 78 32 42 1007.9 - 0.0
27/05:00pm 10.7 -1.3 5.0 68 2.6 NNW 57 74 31 40 1007.9 - 0.0
27/04:43pm 10.5 -1.2 5.3 70 2.4 NNW 56 74 30 40 1008.0 - 0.0
27/04:30pm 10.5 -1.5 4.8 68 2.6 NNW 57 72 31 39 1007.9 - 0.0
27/04:00pm 10.6 -1.5 4.4 65 2.8 NNW 57 76 31 41 1007.8 - 0.0
27/03:59pm 10.6 -1.4 4.7 67 2.7 NNW 57 76 31 41 1007.8 - 0.0
27/03:30pm 10.6 -2.3 4.2 64 2.9 NNW 61 72 33 39 1007.8 - 0.0
27/03:18pm 10.8 -1.1 4.1 63 3.0 NNW 56 74 30 40 1008.1 - 0.0
27/03:00pm 10.5 -2.7 4.3 65 2.8 NNW 63 76 34 41 1008.2 1008.4 0.0
27/02:45pm 10.4 -0.8 4.2 65 2.8 NNW 52 70 28 38 1008.2 - 0.0
27/02:30pm 10.2 0.3 4.7 68 2.5 NNW 46 59 25 32 1008.6 - 0.0
27/02:20pm 10.2 -1.1 5.2 71 2.3 NNW 54 72 29 39 1008.5 - 0.0
27/02:11pm 10.3 -2.5 4.8 69 2.5 NW 61 67 33 36 1008.2 - 0.0
27/02:05pm 10.0 1.1 5.0 71 2.3 NNW 41 65 22 35 1008.8 - 0.0
27/02:00pm 9.6 1.5 5.2 74 2.0 NNW 37 46 20 25 1008.9 - 0.0
27/01:30pm 10.3 -0.5 4.3 66 2.7 NNW 50 59 27 32 1008.6 - 0.0
27/01:14pm 10.1 -2.8 4.1 66 2.7 NNW 61 80 33 43 1008.7 - 0.0
27/01:06pm 9.9 -3.7 4.6 69 2.4 NW 65 76 35 41 1008.4 - 0.0
27/01:00pm 9.7 1.1 4.8 71 2.2 NNW 39 57 21 31 1009.1 - 0.0
27/12:57pm 9.6 1.1 5.0 73 2.1 NNW 39 57 21 31 1009.3 - 0.0
27/12:30pm 9.8 -0.4 3.2 63 2.9 NNW 46 57 25 31 1009.3 - 0.0
27/12:00pm 9.9 0.3 3.3 63 2.9 NNW 43 54 23 29 1009.6 1009.8 0.0
27/11:30am 10.1 -1.4 2.4 59 3.3 NNW 52 63 28 34 1009.8 - 0.0
27/11:00am 10.0 -1.5 2.3 59 3.3 NW 52 59 28 32 1009.9 - 0.0
27/10:30am 10.0 -2.2 2.9 61 3.1 NW 56 67 30 36 1009.7 - 0.0
27/10:00am 9.6 -2.5 3.2 64 2.8 NW 56 63 30 34 1009.9 - 0.0
27/09:30am 9.2 -4.5 1.5 58 3.2 NW 63 72 34 39 1009.3 - 0.0
27/09:00am 9.2 -1.8 2.9 65 2.7 NW 50 69 27 37 1009.5 1009.7 23.6
27/08:30am 8.8 -3.6 2.5 64 2.7 NW 57 65 31 35 1009.5 - 23.6
27/08:00am 8.2 -3.6 5.8 85 1.1 NNW 57 69 31 37 1009.4 - 23.6
27/07:30am 8.8 -1.6 4.0 72 2.1 NW 48 59 26 32 1009.3 - 23.4
27/07:00am 8.5 -2.8 5.2 80 1.5 NW 54 59 29 32 1008.9 - 23.4
27/06:30am 8.7 -2.0 4.4 74 1.9 WNW 50 57 27 31 1008.8 - 23.4
27/06:13am 8.5 -2.0 5.4 81 1.4 NW 50 69 27 37 1008.6 - 23.4
27/06:00am 8.5 -0.8 5.7 82 1.3 NW 44 65 24 35 1008.6 1008.8 23.2
27/05:50am 7.9 -4.6 6.2 89 0.8 NW 61 65 33 35 1008.2 - 23.2
27/05:32am 8.5 -0.6 5.9 84 1.2 NW 43 61 23 33 1008.2 - 22.0
27/05:30am 8.5 0.1 5.7 82 1.3 NW 39 46 21 25 1008.5 - 22.0
27/05:24am 8.7 -3.6 5.2 79 1.6 NW 59 67 32 36 1008.2 - 21.8
27/05:22am 9.2 0.8 5.5 78 1.7 WNW 39 57 21 31 1008.5 - 21.8
27/05:00am 9.5 -1.2 4.6 71 2.2 NW 50 56 27 30 1008.1 - 21.8
27/04:30am 9.6 -0.6 5.0 73 2.1 NW 48 57 26 31 1008.1 - 21.8
27/04:00am 9.3 -0.6 4.6 72 2.1 NW 46 54 25 29 1008.1 - 21.8
27/03:30am 9.3 -0.1 5.4 76 1.8 NW 44 50 24 27 1008.1 - 21.8
27/03:00am 9.3 -0.8 5.6 78 1.7 NW 48 57 26 31 1008.0 1008.2 21.8
27/02:30am 9.2 -0.9 5.5 78 1.7 WNW 48 57 26 31 1008.1 - 21.8

Other Formats:

Comma delimited format used in spreadsheet applications
http://www.bom.gov.au/fwo/IDT60801/IDT60801.94962.axf

JavaScript Object Notation format (JSON) in row-major order
http://www.bom.gov.au/fwo/IDT60801/IDT60801.94962.json